Impacts TAF Board
For situational awareness. Not to be used for flight planning purposes.
IDs:

KCLL - College Station/East, TX, US

Issued at 1140 UTC 13 Dec 2019
Updated at 1347 UTC 13 Dec 2019
Potential Impact None Slight Moderate High
Time<<14/02Z 14/03Z 14/04Z 14/05Z 14/06Z 14/07Z 14/08Z 14/09Z 14/10Z 14/11Z 14/12Z 14/13Z 14/14Z>>
Type PRVL PRVL PRVL PRVL PRVL PRVL PRVL PRVL PRVL PRVL
VIS >6 >6 >6 >6 >6 >6 >6 >6 >6 >6
CIG -- -- -- -- -- -- -- -- -- --
Cover SKC SKC SKC SKC SKC SKC SKC SKC SKC SKC
FltCat VFR VFR VFR VFR VFR VFR VFR VFR VFR VFR
WX MIFG MIFG MIFG MIFG MIFG MIFG MIFG MIFG MIFG MIFG
WDir 340 340 340 340 340 340 340 340 340 340
WSpd 4 4 4 4 4 4 4 4 4 4
WGst -- -- -- -- -- -- -- -- -- --
Raw TAF
KCLL 131140Z 1312/1412 20004KT 1SM BR OVC005
  TEMPO 1313/1315 1/4SM FG OVC002
  FM131500 22008KT P6SM SCT015 SCT045
  FM131700 24012KT P6SM SKC
  FM132100 28008KT P6SM SKC
  FM140100 34004KT P6SM MIFG SKC


METAR Board
Radar Display
Forecast Discussion
For situational awareness. Not to be used for flight planning purposes.